createdAt,value
2023-05-11T00:00:46.608Z,89.50
2023-05-11T00:03:14.856Z,89.50
2023-05-11T00:05:48.222Z,89.50
2023-05-11T00:08:17.485Z,89.50
2023-05-11T00:10:48.626Z,89.50
2023-05-11T00:13:16.954Z,89.50
2023-05-11T00:15:45.051Z,89.50
2023-05-11T00:18:13.182Z,89.50
2023-05-11T00:20:41.253Z,89.50
2023-05-11T00:23:10.683Z,89.50
2023-05-11T00:25:39.249Z,89.50
2023-05-11T00:28:07.949Z,89.50
2023-05-11T00:30:36.064Z,89.50
2023-05-11T00:33:04.787Z,89.60
2023-05-11T00:35:33.023Z,89.50
2023-05-11T00:38:01.245Z,89.60
2023-05-11T00:40:32.042Z,89.60
2023-05-11T00:43:00.103Z,89.60
2023-05-11T00:45:28.510Z,89.60
2023-05-11T00:47:56.735Z,89.60
2023-05-11T00:50:27.946Z,89.60
2023-05-11T00:52:56.335Z,89.50
2023-05-11T00:55:24.522Z,89.50
2023-05-11T00:57:54.072Z,89.50
2023-05-11T01:00:22.669Z,89.60
2023-05-11T01:02:51.000Z,89.60
2023-05-11T01:05:19.137Z,89.60
2023-05-11T01:07:51.320Z,89.60
2023-05-11T01:10:22.506Z,89.60
2023-05-11T01:12:58.092Z,89.60
2023-05-11T01:15:28.758Z,89.50
2023-05-11T01:17:59.418Z,89.60
2023-05-11T01:20:32.624Z,89.60
2023-05-11T01:23:25.772Z,89.60
2023-05-11T01:26:12.666Z,89.60
2023-05-11T01:29:20.260Z,89.50
2023-05-11T01:31:49.804Z,89.60
2023-05-11T01:34:18.944Z,89.60
2023-05-11T01:36:50.693Z,89.60
2023-05-11T01:39:18.805Z,89.60
2023-05-11T01:41:47.370Z,89.60
2023-05-11T01:44:15.426Z,89.60
2023-05-11T01:46:43.559Z,89.60
2023-05-11T01:49:13.046Z,89.60
2023-05-11T01:51:51.506Z,89.60
2023-05-11T01:54:19.641Z,89.60
2023-05-11T01:56:47.703Z,89.60
2023-05-11T01:59:15.936Z,89.60
2023-05-11T02:01:44.053Z,89.60
2023-05-11T02:04:12.200Z,89.60
2023-05-11T02:06:40.270Z,89.60
2023-05-11T02:09:09.959Z,89.60
2023-05-11T02:11:49.464Z,89.70
2023-05-11T02:14:18.724Z,89.60
2023-05-11T02:16:47.278Z,89.60
2023-05-11T02:19:15.367Z,89.60
2023-05-11T02:21:43.483Z,89.60
2023-05-11T02:24:13.108Z,89.60
2023-05-11T02:26:41.164Z,89.60
2023-05-11T02:29:09.240Z,89.60
2023-05-11T02:31:45.917Z,89.60
2023-05-11T02:34:20.957Z,89.60
2023-05-11T02:36:49.547Z,89.60
2023-05-11T02:39:21.898Z,89.60
2023-05-11T02:41:51.777Z,89.60
2023-05-11T02:44:21.536Z,89.60
2023-05-11T02:46:49.663Z,89.60
2023-05-11T02:49:17.991Z,89.60
2023-05-11T02:51:46.563Z,89.60
2023-05-11T02:54:14.598Z,89.60
2023-05-11T02:56:44.208Z,89.60
2023-05-11T02:59:12.292Z,89.60
2023-05-11T03:01:40.624Z,89.60
2023-05-11T03:04:08.812Z,89.60
2023-05-11T03:06:37.268Z,89.60
2023-05-11T03:09:07.270Z,89.60
2023-05-11T03:11:37.336Z,89.60
2023-05-11T03:14:07.096Z,89.60
2023-05-11T03:16:35.191Z,89.60
2023-05-11T03:19:03.638Z,89.50
2023-05-11T03:21:32.278Z,89.50
2023-05-11T03:24:00.335Z,89.50
2023-05-11T03:26:30.068Z,89.50
2023-05-11T03:28:58.286Z,89.50
2023-05-11T03:31:27.870Z,89.50
2023-05-11T03:33:58.855Z,89.50
2023-05-11T03:36:27.248Z,89.50
2023-05-11T03:38:56.573Z,89.50
2023-05-11T03:41:25.962Z,89.50
2023-05-11T03:43:54.011Z,89.40
2023-05-11T03:46:22.430Z,89.50
2023-05-11T03:48:51.973Z,89.50
2023-05-11T03:51:20.097Z,89.50
2023-05-11T03:53:48.204Z,89.50
2023-05-11T03:56:16.265Z,89.40
2023-05-11T03:58:44.382Z,89.50
2023-05-11T04:01:13.797Z,89.50
2023-05-11T04:03:53.733Z,89.50
2023-05-11T04:06:43.023Z,89.50
2023-05-11T04:09:11.150Z,89.50
2023-05-11T04:11:39.398Z,89.50
2023-05-11T04:14:07.454Z,89.50
2023-05-11T04:16:35.992Z,89.50
2023-05-11T04:19:06.475Z,89.60
2023-05-11T04:21:34.642Z,89.60
2023-05-11T04:24:02.821Z,89.60
2023-05-11T04:26:30.870Z,89.60
2023-05-11T04:28:59.039Z,89.60
2023-05-11T04:31:27.118Z,89.60
2023-05-11T04:33:55.230Z,89.60
2023-05-11T04:36:25.082Z,89.60
2023-05-11T04:38:53.257Z,89.60
2023-05-11T04:41:22.390Z,89.60
2023-05-11T04:43:50.479Z,89.60
2023-05-11T04:46:18.570Z,89.60
2023-05-11T04:48:46.677Z,89.60
2023-05-11T04:51:14.788Z,89.60
2023-05-11T04:53:44.721Z,89.60
2023-05-11T04:56:16.065Z,89.60
2023-05-11T04:58:44.207Z,89.60
2023-05-11T05:01:12.393Z,89.60
2023-05-11T05:03:40.518Z,89.60
2023-05-11T05:06:08.699Z,89.60
2023-05-11T05:08:36.794Z,89.60
2023-05-11T05:11:06.251Z,89.50
2023-05-11T05:13:37.435Z,89.50
2023-05-11T05:16:05.893Z,89.50
2023-05-11T05:18:34.032Z,89.50
2023-05-11T05:21:02.365Z,89.60
2023-05-11T05:23:30.405Z,89.60
2023-05-11T05:25:58.440Z,89.50
2023-05-11T05:28:28.006Z,89.50
2023-05-11T05:30:56.130Z,89.50
2023-05-11T05:33:24.353Z,89.60
2023-05-11T05:35:52.378Z,89.50
2023-05-11T05:38:20.461Z,89.60
2023-05-11T05:40:48.625Z,89.50
2023-05-11T05:43:16.720Z,89.50
2023-05-11T05:45:46.291Z,89.50
2023-05-11T05:48:14.406Z,89.50
2023-05-11T05:50:42.480Z,89.50
2023-05-11T05:53:10.620Z,89.50
2023-05-11T05:55:38.677Z,89.50
2023-05-11T05:58:06.761Z,89.50
2023-05-11T06:00:35.136Z,89.40
2023-05-11T06:03:05.007Z,89.40
2023-05-11T06:05:33.130Z,89.50
2023-05-11T06:08:09.863Z,89.50
2023-05-11T06:10:39.172Z,89.50
2023-05-11T06:13:08.513Z,89.40
2023-05-11T06:15:36.712Z,89.50
2023-05-11T06:18:06.767Z,89.50
2023-05-11T06:20:34.947Z,89.60
2023-05-11T06:23:08.819Z,89.60
2023-05-11T06:25:36.855Z,89.60
2023-05-11T06:28:05.118Z,89.60
2023-05-11T06:30:33.263Z,89.60
2023-05-11T06:33:01.425Z,89.50
2023-05-11T06:35:46.000Z,89.50
2023-05-11T06:38:14.104Z,89.50
2023-05-11T06:40:42.143Z,89.40
2023-05-11T06:43:10.211Z,89.40
2023-05-11T06:45:38.616Z,89.40
2023-05-11T06:48:07.376Z,89.40
2023-05-11T06:50:35.663Z,89.50
2023-05-11T06:53:05.214Z,89.50
2023-05-11T06:55:33.300Z,89.50
2023-05-11T06:58:01.424Z,89.50
2023-05-11T07:00:29.494Z,89.60
2023-05-11T07:02:57.620Z,89.50
2023-05-11T07:05:25.744Z,89.50
2023-05-11T07:07:59.834Z,89.40
2023-05-11T07:10:29.295Z,89.40
2023-05-11T07:12:57.418Z,89.40
2023-05-11T07:15:25.579Z,89.40
2023-05-11T07:17:53.792Z,89.40
2023-05-11T07:20:21.957Z,89.40
2023-05-11T07:22:50.356Z,89.30
2023-05-11T07:25:18.518Z,89.30
2023-05-11T07:27:48.011Z,89.40
2023-05-11T07:30:17.992Z,89.30
2023-05-11T07:32:46.870Z,89.30
2023-05-11T07:35:15.896Z,89.30
2023-05-11T07:37:43.969Z,89.30
2023-05-11T07:40:12.575Z,89.30
2023-05-11T07:42:40.678Z,89.30
2023-05-11T07:45:11.074Z,89.30
2023-05-11T07:47:39.128Z,89.30
2023-05-11T07:50:08.672Z,89.20
2023-05-11T07:52:36.787Z,89.30
2023-05-11T07:55:05.223Z,89.20
2023-05-11T07:57:33.360Z,89.00
2023-05-11T08:00:01.497Z,89.00
2023-05-11T08:02:31.146Z,89.00
2023-05-11T08:04:59.304Z,89.10
2023-05-11T08:07:32.928Z,89.10
2023-05-11T08:10:00.967Z,89.20
2023-05-11T08:12:29.133Z,89.20
2023-05-11T08:15:04.086Z,89.30
2023-05-11T08:17:33.638Z,89.20
2023-05-11T08:20:01.743Z,89.30
2023-05-11T08:22:29.905Z,89.20
2023-05-11T08:24:58.089Z,89.20
2023-05-11T08:27:26.217Z,89.10
2023-05-11T08:29:54.589Z,89.10
2023-05-11T08:32:22.725Z,89.10
2023-05-11T08:34:52.731Z,89.10
2023-05-11T08:37:20.925Z,89.10
2023-05-11T08:39:49.043Z,89.10
2023-05-11T08:42:17.632Z,89.00
2023-05-11T08:44:45.975Z,88.80
2023-05-11T08:47:23.194Z,88.90
2023-05-11T08:49:53.984Z,88.80
2023-05-11T08:52:22.105Z,88.80
2023-05-11T08:54:50.160Z,88.70
2023-05-11T08:57:18.401Z,88.70
2023-05-11T08:59:46.966Z,88.50
2023-05-11T09:02:18.878Z,88.60
2023-05-11T09:04:48.963Z,88.60
2023-05-11T09:07:18.928Z,88.70
2023-05-11T09:09:47.204Z,88.70
2023-05-11T09:12:15.268Z,88.60
2023-05-11T09:14:43.357Z,88.70
2023-05-11T09:17:11.517Z,88.70
2023-05-11T09:19:57.601Z,88.80
2023-05-11T09:22:29.307Z,88.80
2023-05-11T09:24:58.854Z,88.80
2023-05-11T09:27:27.118Z,88.80
2023-05-11T09:29:55.557Z,88.80
2023-05-11T09:32:23.851Z,88.80
2023-05-11T09:34:52.045Z,88.90
2023-05-11T09:37:27.568Z,88.90
2023-05-11T09:42:27.281Z,88.90
2023-05-11T09:44:55.828Z,88.90
2023-05-11T09:47:23.950Z,89.00
2023-05-11T09:49:52.089Z,89.00
2023-05-11T09:52:21.220Z,89.10
2023-05-11T09:54:52.315Z,89.00
2023-05-11T09:57:27.334Z,89.00
2023-05-11T09:59:55.924Z,88.90
2023-05-11T10:02:25.040Z,88.90
2023-05-11T10:04:54.328Z,88.90
2023-05-11T10:07:26.587Z,88.90
2023-05-11T10:10:03.244Z,88.90
2023-05-11T10:12:33.486Z,88.50
2023-05-11T10:15:02.924Z,88.50
2023-05-11T10:17:31.639Z,88.40
2023-05-11T10:19:59.947Z,88.50
2023-05-11T10:22:28.711Z,88.40
2023-05-11T10:24:59.052Z,88.40
2023-05-11T10:27:27.416Z,88.10
2023-05-11T10:29:55.617Z,88.20
2023-05-11T10:32:23.793Z,88.00
2023-05-11T10:34:52.081Z,88.20
2023-05-11T10:37:21.290Z,88.50
2023-05-11T10:39:50.637Z,88.50
2023-05-11T10:45:53.766Z,88.50
2023-05-11T10:48:39.602Z,88.50
2023-05-11T10:51:34.930Z,88.50
2023-05-11T10:54:11.181Z,88.40
2023-05-11T10:56:50.843Z,87.90
2023-05-11T10:59:47.933Z,87.80
2023-05-11T11:02:17.869Z,87.70
2023-05-11T11:04:52.495Z,87.50
2023-05-11T11:07:21.085Z,87.50
2023-05-11T11:09:54.114Z,87.40
2023-05-11T11:12:27.851Z,87.30
2023-05-11T11:15:06.098Z,87.20
2023-05-11T11:17:35.193Z,87.10
2023-05-11T11:20:04.460Z,87.20
2023-05-11T11:22:46.863Z,87.20
2023-05-11T11:25:15.601Z,87.20
2023-05-11T11:28:00.205Z,87.30
2023-05-11T11:30:30.793Z,87.50
2023-05-11T11:33:35.231Z,87.40
2023-05-11T11:36:03.337Z,87.30
2023-05-11T11:38:33.195Z,87.10
2023-05-11T11:41:01.235Z,87.10
2023-05-11T11:43:31.525Z,87.20
2023-05-11T11:46:01.127Z,87.00
2023-05-11T11:48:32.515Z,87.30
2023-05-11T11:51:13.130Z,87.40
2023-05-11T11:54:00.821Z,87.30
2023-05-11T11:56:42.298Z,87.10
2023-05-11T11:59:13.916Z,86.90
2023-05-11T12:01:44.102Z,87.00
2023-05-11T12:04:39.595Z,87.20
2023-05-11T12:07:09.817Z,87.30
2023-05-11T12:09:39.734Z,87.10
2023-05-11T12:12:19.670Z,87.00
2023-05-11T12:14:49.822Z,87.00
2023-05-11T12:17:26.075Z,87.10
2023-05-11T12:19:54.308Z,87.10
2023-05-11T12:22:25.747Z,86.80
2023-05-11T12:24:58.262Z,86.90
2023-05-11T12:27:28.327Z,86.70
2023-05-11T12:29:57.366Z,86.80
2023-05-11T12:32:30.648Z,86.80
2023-05-11T12:35:00.228Z,86.70
2023-05-11T12:37:28.390Z,86.60
2023-05-11T12:39:56.959Z,86.80
2023-05-11T12:42:25.100Z,86.90
2023-05-11T12:45:09.264Z,86.70
2023-05-11T12:47:38.914Z,86.70
2023-05-11T12:50:08.564Z,86.60
2023-05-11T12:52:36.719Z,86.60
2023-05-11T12:55:05.029Z,86.80
2023-05-11T12:57:33.702Z,86.70
2023-05-11T13:00:12.661Z,86.70
2023-05-11T13:02:52.411Z,86.50
2023-05-11T13:05:29.457Z,86.60
2023-05-11T13:08:00.787Z,86.40
2023-05-11T13:10:29.083Z,86.50
2023-05-11T13:12:57.356Z,86.60
2023-05-11T13:15:25.812Z,86.50
2023-05-11T13:18:04.068Z,86.50
2023-05-11T13:20:33.378Z,86.50
2023-05-11T13:23:05.647Z,86.50
2023-05-11T13:25:33.950Z,86.50
2023-05-11T13:28:02.625Z,86.70
2023-05-11T13:30:33.425Z,86.80
2023-05-11T13:33:04.437Z,86.90
2023-05-11T13:35:32.659Z,87.00
2023-05-11T13:38:00.743Z,87.10
2023-05-11T13:40:28.968Z,87.30
2023-05-11T13:42:57.260Z,87.40
2023-05-11T13:45:25.558Z,87.50
2023-05-11T13:47:55.285Z,87.60
2023-05-11T13:50:25.123Z,87.70
2023-05-11T13:52:53.196Z,87.80
2023-05-11T13:55:21.579Z,87.90
2023-05-11T13:57:49.840Z,87.90
2023-05-11T14:00:19.598Z,88.00
2023-05-11T14:02:49.699Z,88.10
2023-05-11T14:05:18.470Z,88.10
2023-05-11T14:07:49.222Z,88.20
2023-05-11T14:10:17.830Z,88.20
2023-05-11T14:12:46.122Z,88.20
2023-05-11T14:15:14.486Z,88.20
2023-05-11T14:17:43.299Z,88.30
2023-05-11T14:20:12.805Z,88.20
2023-05-11T14:22:41.595Z,88.20
2023-05-11T14:25:16.793Z,88.20
2023-05-11T14:27:45.076Z,88.30
2023-05-11T14:30:13.774Z,88.40
2023-05-11T14:32:41.861Z,88.40
2023-05-11T14:35:10.359Z,88.40
2023-05-11T14:37:38.627Z,88.50
2023-05-11T14:40:08.007Z,88.60
2023-05-11T14:42:37.944Z,88.70
2023-05-11T14:45:06.989Z,88.70
2023-05-11T14:47:35.175Z,88.70
2023-05-11T14:50:03.478Z,88.70
2023-05-11T14:52:31.943Z,88.80
2023-05-11T14:55:00.040Z,88.80
2023-05-11T14:57:37.041Z,88.90
2023-05-11T15:00:08.530Z,88.90
2023-05-11T15:02:36.644Z,89.10
2023-05-11T15:05:04.992Z,89.10
2023-05-11T15:07:33.137Z,89.10
2023-05-11T15:10:01.983Z,89.20
2023-05-11T15:12:30.612Z,89.20
2023-05-11T15:14:58.709Z,89.30
2023-05-11T15:17:28.211Z,89.30
2023-05-11T15:19:56.403Z,89.30
2023-05-11T15:22:24.478Z,89.40
2023-05-11T15:24:52.540Z,89.40
2023-05-11T15:27:20.700Z,89.40
2023-05-11T15:29:51.872Z,89.40
2023-05-11T15:32:20.515Z,89.50
2023-05-11T15:34:59.290Z,89.50
2023-05-11T15:37:28.341Z,89.50
2023-05-11T15:39:56.435Z,89.60
2023-05-11T15:42:24.559Z,89.60
2023-05-11T15:44:57.561Z,89.70
2023-05-11T15:47:26.031Z,89.70
2023-05-11T15:49:55.543Z,89.70
2023-05-11T15:52:23.620Z,89.70
2023-05-11T15:54:51.749Z,89.70
2023-05-11T15:57:21.353Z,89.60
2023-05-11T15:59:49.492Z,89.60
2023-05-11T16:02:17.691Z,89.60
2023-05-11T16:04:45.967Z,89.60
2023-05-11T16:07:15.526Z,89.60
2023-05-11T16:09:43.772Z,89.70
2023-05-11T16:12:11.976Z,89.60
2023-05-11T16:14:40.052Z,89.70
2023-05-11T16:17:08.592Z,89.80
2023-05-11T16:19:37.297Z,91.00
2023-05-11T16:22:05.752Z,91.10
2023-05-11T16:24:35.290Z,90.10
2023-05-11T16:27:04.165Z,89.80
2023-05-11T16:29:32.480Z,89.80
2023-05-11T16:32:00.960Z,89.70
2023-05-11T16:34:29.142Z,89.70
2023-05-11T16:36:58.921Z,89.70
2023-05-11T16:39:27.479Z,89.60
2023-05-11T16:41:56.953Z,89.70
2023-05-11T16:44:25.189Z,89.70
2023-05-11T16:46:53.494Z,89.70
2023-05-11T16:49:21.568Z,89.70
2023-05-11T16:52:03.493Z,89.70
2023-05-11T16:54:31.653Z,89.70
2023-05-11T16:57:01.234Z,89.70
2023-05-11T16:59:29.565Z,89.70
2023-05-11T17:02:03.394Z,89.80
2023-05-11T17:04:31.862Z,89.70
2023-05-11T17:06:59.991Z,89.80
2023-05-11T17:09:28.302Z,89.80
2023-05-11T17:11:56.799Z,89.80
2023-05-11T17:14:26.458Z,89.80
2023-05-11T17:16:54.516Z,89.80
2023-05-11T17:19:22.597Z,89.90
2023-05-11T17:21:50.744Z,89.80
2023-05-11T17:24:18.891Z,89.90
2023-05-11T17:26:48.404Z,90.00
2023-05-11T17:29:17.159Z,90.00
2023-05-11T17:31:49.294Z,90.00
2023-05-11T17:34:17.787Z,90.00
2023-05-11T17:36:45.964Z,90.00
2023-05-11T17:39:14.076Z,90.00
2023-05-11T17:41:58.498Z,90.00
2023-05-11T17:44:26.614Z,90.00
2023-05-11T17:46:56.062Z,90.00
2023-05-11T17:49:24.150Z,90.10
2023-05-11T17:51:52.188Z,90.10
2023-05-11T17:54:20.369Z,90.10
2023-05-11T17:56:48.668Z,90.10
2023-05-11T17:59:16.752Z,90.10
2023-05-11T18:01:44.856Z,90.10
2023-05-11T18:04:15.186Z,90.10
2023-05-11T18:06:43.555Z,90.10
2023-05-11T18:09:12.591Z,90.10
2023-05-11T18:11:40.966Z,90.10
2023-05-11T18:14:12.116Z,90.10
2023-05-11T18:16:40.242Z,90.00
2023-05-11T18:19:08.361Z,90.10
2023-05-11T18:21:38.246Z,90.10
2023-05-11T18:24:07.297Z,90.10
2023-05-11T18:26:35.363Z,90.10
2023-05-11T18:29:03.436Z,90.20
2023-05-11T18:31:31.699Z,90.20
2023-05-11T18:33:59.793Z,90.20
2023-05-11T18:36:28.163Z,90.20
2023-05-11T18:38:57.683Z,90.20
2023-05-11T18:41:25.724Z,90.30
2023-05-11T18:43:54.504Z,90.30
2023-05-11T18:46:22.696Z,90.30
2023-05-11T18:48:59.832Z,90.30
2023-05-11T18:51:27.881Z,90.30
2023-05-11T18:53:57.364Z,90.30
2023-05-11T18:56:25.536Z,90.30
2023-05-11T18:58:53.614Z,90.30
2023-05-11T19:01:25.871Z,90.30
2023-05-11T19:03:58.520Z,90.30
2023-05-11T19:06:26.608Z,90.30
2023-05-11T19:08:55.780Z,90.40
2023-05-11T19:11:25.672Z,90.30
2023-05-11T19:13:53.747Z,90.30
2023-05-11T19:16:29.453Z,90.30
2023-05-11T19:18:57.592Z,90.40
2023-05-11T19:21:25.703Z,90.40
2023-05-11T19:23:53.964Z,90.40
2023-05-11T19:26:22.969Z,90.30
2023-05-11T19:28:52.484Z,90.30
2023-05-11T19:31:20.623Z,90.30
2023-05-11T19:33:48.713Z,90.40
2023-05-11T19:36:16.929Z,90.40
2023-05-11T19:38:52.409Z,90.40
2023-05-11T19:41:21.098Z,90.50
2023-05-11T19:43:49.142Z,90.50
2023-05-11T19:46:18.720Z,90.50
2023-05-11T19:48:46.796Z,90.50
2023-05-11T19:51:14.840Z,90.50
2023-05-11T19:53:43.649Z,90.50
2023-05-11T19:56:11.688Z,90.50
2023-05-11T19:58:40.112Z,90.50
2023-05-11T20:01:08.358Z,90.50
2023-05-11T20:03:38.027Z,90.50
2023-05-11T20:06:08.508Z,90.50
2023-05-11T20:08:36.622Z,90.50
2023-05-11T20:11:05.157Z,90.50
2023-05-11T20:13:33.221Z,90.50
2023-05-11T20:16:01.422Z,90.50
2023-05-11T20:18:29.645Z,90.40
2023-05-11T20:20:59.121Z,90.40
2023-05-11T20:23:27.386Z,90.40
2023-05-11T20:25:55.448Z,90.50
2023-05-11T20:28:27.239Z,90.50
2023-05-11T20:30:56.232Z,90.50
2023-05-11T20:35:55.533Z,90.50
2023-05-11T20:38:25.583Z,90.50
2023-05-11T20:40:57.883Z,90.40
2023-05-11T20:43:27.230Z,90.40
2023-05-11T20:46:03.419Z,90.50
2023-05-11T20:48:40.088Z,90.50
2023-05-11T20:51:09.501Z,90.50
2023-05-11T20:53:39.045Z,90.50
2023-05-11T20:56:08.406Z,90.50
2023-05-11T20:58:36.618Z,90.50
2023-05-11T21:01:04.740Z,90.50
2023-05-11T21:03:32.875Z,90.50
2023-05-11T21:06:01.014Z,90.50
2023-05-11T21:08:29.040Z,90.50
2023-05-11T21:10:58.525Z,90.50
2023-05-11T21:13:26.557Z,90.50
2023-05-11T21:15:54.731Z,90.50
2023-05-11T21:18:23.221Z,90.50
2023-05-11T21:20:51.712Z,90.50
2023-05-11T21:23:19.790Z,90.50
2023-05-11T21:25:53.181Z,90.40
2023-05-11T21:28:22.665Z,90.40
2023-05-11T21:30:50.788Z,90.40
2023-05-11T21:33:18.893Z,90.50
2023-05-11T21:35:47.044Z,90.40
2023-05-11T21:38:16.964Z,90.40
2023-05-11T21:40:45.041Z,90.50
2023-05-11T21:43:14.077Z,90.50
2023-05-11T21:45:45.469Z,90.50
2023-05-11T21:48:14.003Z,90.50
2023-05-11T21:50:42.203Z,90.50
2023-05-11T21:53:13.367Z,90.50
2023-05-11T21:55:41.488Z,90.50
2023-05-11T21:58:09.539Z,90.50
2023-05-11T22:00:38.040Z,90.50
2023-05-11T22:03:07.695Z,90.50
2023-05-11T22:05:36.067Z,90.60
2023-05-11T22:08:13.797Z,90.60
2023-05-11T22:10:44.025Z,90.50
2023-05-11T22:13:12.121Z,90.50
2023-05-11T22:15:40.293Z,90.50
2023-05-11T22:18:09.805Z,90.50
2023-05-11T22:20:37.899Z,90.60
2023-05-11T22:23:05.959Z,90.60
2023-05-11T22:25:47.885Z,90.60
2023-05-11T22:28:15.978Z,90.50
2023-05-11T22:30:44.115Z,90.50
2023-05-11T22:33:13.630Z,90.50
2023-05-11T22:35:42.468Z,90.50
2023-05-11T22:38:15.626Z,90.50
2023-05-11T22:40:43.724Z,90.50
2023-05-11T22:43:11.805Z,90.50
2023-05-11T22:45:39.958Z,90.50
2023-05-11T22:48:08.195Z,90.50
2023-05-11T22:50:37.634Z,90.60
2023-05-11T22:53:05.766Z,90.60
2023-05-11T22:55:34.910Z,90.60
2023-05-11T22:58:03.543Z,90.60
2023-05-11T23:00:31.769Z,90.60
2023-05-11T23:03:00.007Z,90.60
2023-05-11T23:05:33.704Z,90.60
2023-05-11T23:08:03.228Z,90.60
2023-05-11T23:10:31.387Z,90.60
2023-05-11T23:12:59.486Z,90.60
2023-05-11T23:15:28.039Z,90.50
2023-05-11T23:17:56.286Z,90.60
2023-05-11T23:20:24.379Z,90.60
2023-05-11T23:22:52.536Z,90.60
2023-05-11T23:25:22.028Z,90.70
2023-05-11T23:27:50.193Z,90.70
2023-05-11T23:30:19.128Z,90.60
2023-05-11T23:32:47.446Z,90.60
2023-05-11T23:35:15.646Z,90.70
2023-05-11T23:37:43.894Z,90.60
2023-05-11T23:40:12.671Z,90.50
2023-05-11T23:42:42.251Z,90.40
2023-05-11T23:45:11.108Z,90.40
2023-05-11T23:47:45.123Z,90.40
2023-05-11T23:50:13.938Z,90.40
2023-05-11T23:52:42.045Z,90.50
2023-05-11T23:55:10.880Z,90.40
2023-05-11T23:57:38.929Z,90.30
